createdAt,value
2022-09-05T00:00:12.850Z,17.2
2022-09-05T00:01:29.174Z,17.3
2022-09-05T00:02:33.815Z,17.3
2022-09-05T00:03:37.801Z,17.3
2022-09-05T00:04:41.167Z,17.2
2022-09-05T00:06:04.993Z,17.2
2022-09-05T00:07:08.921Z,17.2
2022-09-05T00:08:11.738Z,17.2
2022-09-05T00:09:20.815Z,17.2
2022-09-05T00:11:44.733Z,17.2
2022-09-05T00:12:51.127Z,17.3
2022-09-05T00:14:11.098Z,17.3
2022-09-05T00:15:20.463Z,17.3
2022-09-05T00:16:30.334Z,17.3
2022-09-05T00:25:32.524Z,17.3
2022-09-05T00:26:50.921Z,17.3
2022-09-05T00:27:53.751Z,17.2
2022-09-05T00:28:56.910Z,17.3
2022-09-05T00:31:58.816Z,17.3
2022-09-05T00:33:18.188Z,17.2
2022-09-05T00:34:21.527Z,17.2
2022-09-05T00:35:27.715Z,17.3
2022-09-05T00:36:30.858Z,17.3
2022-09-05T00:37:33.651Z,17.2
2022-09-05T00:38:38.708Z,17.2
2022-09-05T00:40:20.324Z,17.2
2022-09-05T00:41:23.615Z,17.2
2022-09-05T00:42:26.684Z,17.2
2022-09-05T00:43:29.829Z,17.2
2022-09-05T00:44:32.690Z,17.1
2022-09-05T00:45:36.048Z,17.2
2022-09-05T00:46:39.329Z,17.1
2022-09-05T00:47:49.914Z,17.1
2022-09-05T00:48:53.814Z,17.1
2022-09-05T00:49:56.665Z,17.1
2022-09-05T00:51:00.407Z,17.1
2022-09-05T00:52:02.995Z,17.1
2022-09-05T00:53:09.632Z,17
2022-09-05T00:54:42.022Z,17
2022-09-05T00:55:45.605Z,17.1
2022-09-05T00:56:52.516Z,17
2022-09-05T00:57:55.591Z,17
2022-09-05T00:58:57.979Z,17
2022-09-05T01:00:00.854Z,17
2022-09-05T01:01:23.342Z,16.9
2022-09-05T01:02:27.278Z,16.9
2022-09-05T01:03:30.496Z,16.9
2022-09-05T01:04:33.367Z,16.9
2022-09-05T01:05:36.542Z,16.9
2022-09-05T01:06:39.057Z,16.9
2022-09-05T01:07:48.506Z,16.9
2022-09-05T01:08:51.666Z,16.9
2022-09-05T01:09:54.013Z,17
2022-09-05T01:10:56.327Z,16.9
2022-09-05T01:11:59.669Z,16.9
2022-09-05T01:13:02.459Z,16.9
2022-09-05T01:14:14.496Z,16.9
2022-09-05T01:15:17.843Z,16.9
2022-09-05T01:16:21.199Z,16.9
2022-09-05T01:17:24.750Z,16.9
2022-09-05T01:18:27.619Z,16.8
2022-09-05T01:19:30.701Z,16.9
2022-09-05T01:20:39.500Z,16.8
2022-09-05T01:21:49.584Z,16.9
2022-09-05T01:22:52.411Z,16.8
2022-09-05T01:23:55.558Z,16.8
2022-09-05T01:24:57.953Z,16.8
2022-09-05T01:26:00.943Z,16.8
2022-09-05T01:27:12.339Z,16.7
2022-09-05T01:29:20.599Z,16.8
2022-09-05T01:30:34.139Z,16.7
2022-09-05T01:31:37.244Z,16.7
2022-09-05T01:32:39.923Z,16.7
2022-09-05T01:33:42.877Z,16.7
2022-09-05T01:34:45.386Z,16.7
2022-09-05T01:36:05.496Z,16.8
2022-09-05T01:37:34.901Z,16.7
2022-09-05T01:38:37.842Z,16.7
2022-09-05T01:40:18.494Z,16.7
2022-09-05T01:41:21.908Z,16.6
2022-09-05T01:42:24.798Z,16.7
2022-09-05T01:43:28.246Z,16.7
2022-09-05T01:44:31.763Z,16.6
2022-09-05T01:45:44.425Z,16.7
2022-09-05T01:46:49.755Z,16.6
2022-09-05T01:47:53.409Z,16.7
2022-09-05T01:49:00.457Z,16.6
2022-09-05T01:50:08.074Z,16.6
2022-09-05T01:51:33.314Z,16.6
2022-09-05T01:52:58.789Z,16.5
2022-09-05T01:54:31.275Z,16.6
2022-09-05T01:56:13.135Z,16.6
2022-09-05T01:57:21.009Z,16.7
2022-09-05T01:58:24.074Z,16.7
2022-09-05T01:59:26.949Z,16.7
2022-09-05T02:00:29.942Z,16.7
2022-09-05T02:01:35.039Z,16.7
2022-09-05T02:02:39.231Z,16.6
2022-09-05T02:03:42.679Z,16.7
2022-09-05T02:04:45.551Z,16.7
2022-09-05T02:05:50.660Z,16.7
2022-09-05T02:06:53.724Z,16.6
2022-09-05T02:07:56.241Z,16.6
2022-09-05T02:08:58.675Z,16.6
2022-09-05T02:10:09.318Z,16.6
2022-09-05T02:11:13.248Z,16.5
2022-09-05T02:12:16.132Z,16.6
2022-09-05T02:13:19.235Z,16.6
2022-09-05T02:14:35.549Z,16.7
2022-09-05T02:15:39.360Z,16.6
2022-09-05T02:16:42.335Z,16.6
2022-09-05T02:17:53.011Z,16.6
2022-09-05T02:18:56.017Z,16.6
2022-09-05T02:19:59.166Z,16.5
2022-09-05T02:21:01.761Z,16.6
2022-09-05T02:22:04.439Z,16.6
2022-09-05T02:23:45.503Z,16.6
2022-09-05T02:26:03.080Z,16.5
2022-09-05T02:27:06.434Z,16.6
2022-09-05T02:28:09.303Z,16.5
2022-09-05T02:29:30.555Z,16.6
2022-09-05T02:30:33.536Z,16.6
2022-09-05T02:31:36.600Z,16.6
2022-09-05T02:32:44.412Z,16.6
2022-09-05T02:33:48.129Z,16.5
2022-09-05T02:34:50.971Z,16.5
2022-09-05T02:35:54.365Z,16.5
2022-09-05T02:36:57.697Z,16.5
2022-09-05T02:45:29.583Z,16.5
2022-09-05T02:46:35.554Z,16.5
2022-09-05T02:47:38.979Z,16.5
2022-09-05T02:48:41.486Z,16.5
2022-09-05T02:58:10.053Z,16.4
2022-09-05T02:59:37.408Z,16.4
2022-09-05T03:00:40.394Z,16.4
2022-09-05T03:01:44.351Z,16.4
2022-09-05T03:02:46.453Z,16.3
2022-09-05T03:03:49.614Z,16.4
2022-09-05T03:05:06.330Z,16.4
2022-09-05T03:06:09.703Z,16.3
2022-09-05T03:07:13.050Z,16.2
2022-09-05T03:08:15.923Z,16.3
2022-09-05T03:09:19.670Z,16.3
2022-09-05T03:10:56.265Z,16.3
2022-09-05T03:12:30.656Z,16.2
2022-09-05T03:13:34.231Z,16.3
2022-09-05T03:14:37.459Z,16.3
2022-09-05T03:15:40.912Z,16.2
2022-09-05T03:16:49.552Z,16.2
2022-09-05T03:17:52.211Z,16.2
2022-09-05T03:18:55.403Z,16.1
2022-09-05T03:19:58.622Z,16.1
2022-09-05T03:21:11.424Z,16.1
2022-09-05T03:22:14.763Z,16.1
2022-09-05T03:23:17.557Z,16.1
2022-09-05T03:24:20.545Z,16.1
2022-09-05T03:25:23.417Z,16.1
2022-09-05T03:26:26.287Z,16
2022-09-05T03:27:30.990Z,16.1
2022-09-05T03:28:33.944Z,16.1
2022-09-05T03:29:36.196Z,16.1
2022-09-05T03:30:40.040Z,16.1
2022-09-05T03:31:42.943Z,16.1
2022-09-05T03:32:46.088Z,16
2022-09-05T03:33:48.893Z,16
2022-09-05T03:34:52.618Z,16.1
2022-09-05T03:35:55.336Z,16
2022-09-05T03:36:58.194Z,16
2022-09-05T03:38:01.614Z,16
2022-09-05T03:39:04.058Z,16
2022-09-05T03:40:18.523Z,16
2022-09-05T03:41:43.931Z,15.9
2022-09-05T03:42:46.764Z,15.9
2022-09-05T03:43:49.206Z,15.9
2022-09-05T03:44:52.927Z,15.9
2022-09-05T03:45:56.449Z,15.9
2022-09-05T03:46:59.245Z,15.9
2022-09-05T03:48:30.779Z,15.9
2022-09-05T03:57:43.579Z,15.8
2022-09-05T03:59:03.978Z,15.8
2022-09-05T04:00:07.780Z,15.8
2022-09-05T04:08:43.947Z,15.8
2022-09-05T04:09:54.344Z,15.8
2022-09-05T04:10:58.257Z,15.8
2022-09-05T04:12:04.770Z,15.8
2022-09-05T04:13:07.563Z,15.6
2022-09-05T04:14:10.999Z,15.7
2022-09-05T04:15:14.152Z,15.7
2022-09-05T04:16:17.044Z,15.6
2022-09-05T04:17:20.281Z,15.7
2022-09-05T04:18:36.231Z,15.7
2022-09-05T04:19:40.111Z,15.7
2022-09-05T04:20:42.987Z,15.7
2022-09-05T04:21:45.855Z,15.7
2022-09-05T04:22:49.004Z,15.7
2022-09-05T04:23:51.794Z,15.6
2022-09-05T04:24:55.223Z,15.6
2022-09-05T04:26:13.906Z,15.6
2022-09-05T04:27:16.700Z,15.6
2022-09-05T04:28:19.857Z,15.6
2022-09-05T04:29:23.141Z,15.6
2022-09-05T04:30:41.937Z,15.6
2022-09-05T04:31:45.197Z,15.6
2022-09-05T04:33:38.040Z,15.6
2022-09-05T04:34:41.102Z,15.6
2022-09-05T04:35:44.251Z,15.6
2022-09-05T04:36:47.402Z,15.6
2022-09-05T04:37:51.095Z,15.6
2022-09-05T04:38:53.966Z,15.6
2022-09-05T04:39:57.260Z,15.6
2022-09-05T04:41:00.241Z,15.6
2022-09-05T04:42:03.379Z,15.6
2022-09-05T04:43:06.258Z,15.6
2022-09-05T04:44:09.043Z,15.6
2022-09-05T04:45:11.635Z,15.6
2022-09-05T04:46:21.116Z,15.6
2022-09-05T04:47:27.678Z,15.7
2022-09-05T04:48:32.063Z,15.6
2022-09-05T04:49:34.935Z,15.6
2022-09-05T04:50:39.769Z,15.6
2022-09-05T04:52:01.309Z,15.6
2022-09-05T04:53:08.216Z,15.6
2022-09-05T04:54:11.992Z,15.6
2022-09-05T04:55:15.071Z,15.7
2022-09-05T04:56:17.952Z,15.7
2022-09-05T04:57:21.299Z,15.7
2022-09-05T05:06:47.661Z,15.6
2022-09-05T05:07:52.509Z,15.6
2022-09-05T05:08:56.163Z,15.7
2022-09-05T05:19:17.127Z,15.7
2022-09-05T05:20:45.341Z,15.8
2022-09-05T05:21:48.241Z,15.8
2022-09-05T05:22:52.091Z,15.8
2022-09-05T05:23:55.819Z,15.8
2022-09-05T05:24:58.888Z,15.9
2022-09-05T05:26:01.764Z,15.8
2022-09-05T05:27:05.177Z,15.8
2022-09-05T05:28:26.764Z,15.8
2022-09-05T05:29:30.886Z,15.9
2022-09-05T05:30:33.121Z,15.9
2022-09-05T05:31:36.393Z,15.9
2022-09-05T05:32:48.267Z,15.8
2022-09-05T05:33:50.701Z,15.8
2022-09-05T05:34:53.769Z,15.8
2022-09-05T05:35:56.644Z,15.8
2022-09-05T05:37:02.383Z,15.8
2022-09-05T05:38:05.251Z,15.8
2022-09-05T05:39:08.403Z,15.9
2022-09-05T05:40:11.536Z,15.8
2022-09-05T05:41:14.788Z,15.9
2022-09-05T05:42:22.825Z,15.9
2022-09-05T05:43:25.417Z,15.8
2022-09-05T05:44:28.579Z,15.8
2022-09-05T05:45:32.036Z,15.8
2022-09-05T05:46:35.692Z,15.9
2022-09-05T05:47:38.131Z,15.9
2022-09-05T05:48:58.167Z,15.8
2022-09-05T05:50:01.217Z,15.8
2022-09-05T05:51:04.072Z,15.8
2022-09-05T05:52:07.226Z,15.8
2022-09-05T05:53:32.057Z,15.9
2022-09-05T05:55:54.652Z,15.9
2022-09-05T05:56:58.001Z,16
2022-09-05T05:58:01.231Z,16
2022-09-05T05:59:04.657Z,16
2022-09-05T06:00:15.452Z,16
2022-09-05T06:01:40.771Z,16
2022-09-05T06:02:44.574Z,16
2022-09-05T06:03:48.502Z,16
2022-09-05T06:04:51.310Z,16
2022-09-05T06:05:56.747Z,16
2022-09-05T06:06:59.624Z,16
2022-09-05T06:15:22.905Z,16
2022-09-05T06:16:30.705Z,16.2
2022-09-05T06:17:33.936Z,16.4
2022-09-05T06:18:46.336Z,16.4
2022-09-05T06:22:21.743Z,16.4
2022-09-05T06:23:41.984Z,16.5
2022-09-05T06:24:45.961Z,16.5
2022-09-05T06:25:48.481Z,16.6
2022-09-05T06:26:50.802Z,16.6
2022-09-05T06:28:21.653Z,16.6
2022-09-05T06:29:38.145Z,16.7
2022-09-05T06:30:42.711Z,16.6
2022-09-05T06:31:45.736Z,16.7
2022-09-05T06:32:59.657Z,16.8
2022-09-05T06:34:03.093Z,16.8
2022-09-05T06:35:05.883Z,16.8
2022-09-05T06:36:08.443Z,16.8
2022-09-05T06:37:11.595Z,16.8
2022-09-05T06:38:15.416Z,16.8
2022-09-05T06:39:17.953Z,16.8
2022-09-05T06:40:21.087Z,16.8
2022-09-05T06:41:24.230Z,16.8
2022-09-05T06:42:45.700Z,16.9
2022-09-05T06:43:48.491Z,16.9
2022-09-05T06:44:51.926Z,16.9
2022-09-05T06:47:35.822Z,17
2022-09-05T06:49:45.983Z,17
2022-09-05T06:51:10.447Z,17.1
2022-09-05T06:52:31.355Z,17.2
2022-09-05T06:53:35.999Z,17.1
2022-09-05T06:55:00.824Z,17.1
2022-09-05T06:56:04.748Z,17.2
2022-09-05T06:57:08.712Z,17.3
2022-09-05T06:58:11.296Z,17.3
2022-09-05T06:59:14.165Z,17.4
2022-09-05T07:00:24.092Z,17.4
2022-09-05T07:02:02.936Z,17.5
2022-09-05T07:03:14.113Z,17.5
2022-09-05T07:05:46.498Z,17.5
2022-09-05T07:07:07.820Z,17.5
2022-09-05T07:08:38.162Z,17.6
2022-09-05T07:09:41.223Z,17.6
2022-09-05T07:10:44.296Z,17.7
2022-09-05T07:11:47.667Z,17.8
2022-09-05T07:12:50.347Z,17.9
2022-09-05T07:13:52.860Z,18
2022-09-05T07:15:10.371Z,18
2022-09-05T07:16:13.557Z,18
2022-09-05T07:17:16.870Z,18
2022-09-05T07:18:20.119Z,18
2022-09-05T07:19:23.274Z,18
2022-09-05T07:20:26.453Z,17.9
2022-09-05T07:21:29.117Z,17.9
2022-09-05T07:22:50.603Z,18
2022-09-05T07:24:13.699Z,18.2
2022-09-05T07:26:00.026Z,18.3
2022-09-05T07:27:03.321Z,18.3
2022-09-05T07:28:31.566Z,18.3
2022-09-05T07:29:34.554Z,18.4
2022-09-05T07:30:38.285Z,18.4
2022-09-05T07:31:40.810Z,18.5
2022-09-05T07:32:43.068Z,18.5
2022-09-05T07:33:45.589Z,18.6
2022-09-05T07:34:48.468Z,18.6
2022-09-05T07:35:51.610Z,18.7
2022-09-05T07:37:17.480Z,18.7
2022-09-05T07:38:20.272Z,18.7
2022-09-05T07:39:30.686Z,18.7
2022-09-05T07:40:34.247Z,18.6
2022-09-05T07:41:36.893Z,18.8
2022-09-05T07:42:39.758Z,18.8
2022-09-05T07:43:42.635Z,18.8
2022-09-05T07:44:45.808Z,18.9
2022-09-05T07:45:57.954Z,19
2022-09-05T07:47:01.177Z,18.9
2022-09-05T07:48:04.342Z,19
2022-09-05T07:49:07.115Z,19
2022-09-05T07:57:52.689Z,19.2
2022-09-05T07:58:59.528Z,19.5
2022-09-05T08:00:02.433Z,19.5
2022-09-05T08:01:06.630Z,19.6
2022-09-05T08:02:09.630Z,19.8
2022-09-05T08:03:12.787Z,19.9
2022-09-05T08:04:15.935Z,19.9
2022-09-05T08:05:37.018Z,19.8
2022-09-05T08:07:53.698Z,19.8
2022-09-05T08:10:16.060Z,19.8
2022-09-05T08:11:29.268Z,19.7
2022-09-05T08:13:29.190Z,19.8
2022-09-05T08:14:46.777Z,19.8
2022-09-05T08:16:16.059Z,19.9
2022-09-05T08:17:19.606Z,20
2022-09-05T08:18:23.026Z,20.1
2022-09-05T08:19:25.613Z,20.1
2022-09-05T08:20:29.038Z,20.2
2022-09-05T08:21:32.726Z,20.3
2022-09-05T08:22:54.056Z,20.2
2022-09-05T08:23:57.324Z,20
2022-09-05T08:25:00.461Z,20.1
2022-09-05T08:26:03.086Z,20.1
2022-09-05T08:27:17.584Z,20.2
2022-09-05T08:28:20.631Z,20.1
2022-09-05T08:29:23.885Z,20.1
2022-09-05T08:30:29.950Z,20.2
2022-09-05T08:31:33.302Z,20.2
2022-09-05T08:32:44.777Z,20.3
2022-09-05T08:33:48.137Z,20.4
2022-09-05T08:34:51.009Z,20.5
2022-09-05T08:36:03.088Z,20.5
2022-09-05T08:37:06.241Z,20.5
2022-09-05T08:38:10.907Z,20.6
2022-09-05T08:39:14.095Z,20.7
2022-09-05T08:40:17.530Z,20.7
2022-09-05T08:42:06.633Z,20.7
2022-09-05T08:46:52.262Z,20.8
2022-09-05T08:47:59.130Z,20.7
2022-09-05T08:50:08.736Z,20.6
2022-09-05T08:51:11.186Z,20.7
2022-09-05T08:52:14.282Z,20.6
2022-09-05T08:53:49.332Z,20.7
2022-09-05T08:55:08.781Z,20.6
2022-09-05T08:56:20.575Z,20.5
2022-09-05T08:57:23.785Z,20.6
2022-09-05T08:58:26.581Z,20.5
2022-09-05T08:59:35.833Z,20.6
2022-09-05T09:00:39.877Z,20.6
2022-09-05T09:02:50.055Z,20.6
2022-09-05T09:03:54.427Z,20.6
2022-09-05T09:05:04.477Z,20.7
2022-09-05T09:06:17.349Z,20.7
2022-09-05T09:07:53.699Z,20.6
2022-09-05T09:09:06.300Z,20.7
2022-09-05T09:10:09.723Z,20.7
2022-09-05T09:11:12.801Z,20.8
2022-09-05T09:12:15.963Z,20.7
2022-09-05T09:13:19.401Z,20.8
2022-09-05T09:14:32.846Z,20.8
2022-09-05T09:15:35.642Z,20.8
2022-09-05T09:16:39.089Z,20.8
2022-09-05T09:17:41.954Z,20.8
2022-09-05T09:18:45.028Z,20.9
2022-09-05T09:19:47.423Z,21
2022-09-05T09:20:50.019Z,21
2022-09-05T09:21:53.171Z,20.9
2022-09-05T09:22:56.394Z,21
2022-09-05T09:23:59.818Z,20.9
2022-09-05T09:25:30.702Z,21
2022-09-05T09:26:36.869Z,21
2022-09-05T09:28:53.325Z,21.1
2022-09-05T09:29:55.836Z,21
2022-09-05T09:30:59.527Z,21
2022-09-05T09:32:02.626Z,21.2
2022-09-05T09:33:05.496Z,21.2
2022-09-05T09:34:07.770Z,21.3
2022-09-05T09:35:10.665Z,21.3
2022-09-05T09:36:13.580Z,21.3
2022-09-05T09:37:16.913Z,21.3
2022-09-05T09:39:41.545Z,21.4
2022-09-05T09:41:04.052Z,21.4
2022-09-05T09:42:06.281Z,21.4
2022-09-05T09:43:09.299Z,21.4
2022-09-05T09:44:12.744Z,21.5
2022-09-05T09:45:30.921Z,21.5
2022-09-05T09:46:39.998Z,21.4
2022-09-05T09:47:42.460Z,21.4
2022-09-05T09:48:45.594Z,21.4
2022-09-05T09:49:48.183Z,21.4
2022-09-05T09:51:02.260Z,21.4
2022-09-05T09:52:05.052Z,21.5
2022-09-05T09:53:07.991Z,21.6
2022-09-05T09:54:10.854Z,21.5
2022-09-05T09:55:28.924Z,21.7
2022-09-05T09:56:32.573Z,21.9
2022-09-05T09:57:35.738Z,21.9
2022-09-05T09:58:39.251Z,22.1
2022-09-05T09:59:56.783Z,22
2022-09-05T10:01:00.430Z,22.2
2022-09-05T10:11:52.372Z,22.4
2022-09-05T10:13:10.405Z,22.8
2022-09-05T10:14:52.153Z,23
2022-09-05T10:15:55.890Z,22.9
2022-09-05T10:17:03.195Z,23.2
2022-09-05T10:18:10.367Z,23.3
2022-09-05T10:19:13.936Z,23.1
2022-09-05T10:20:16.976Z,23.1
2022-09-05T10:21:20.432Z,22.9
2022-09-05T10:22:39.589Z,23
2022-09-05T10:23:46.163Z,23.2
2022-09-05T10:24:49.039Z,23.3
2022-09-05T10:25:51.163Z,23.4
2022-09-05T10:26:54.231Z,23.5
2022-09-05T10:27:57.799Z,23.3
2022-09-05T10:29:39.583Z,22.9
2022-09-05T10:35:25.403Z,23.2
2022-09-05T10:36:30.986Z,23.7
2022-09-05T10:37:34.423Z,23.3
2022-09-05T10:38:39.157Z,23.4
2022-09-05T10:39:42.590Z,23.5
2022-09-05T10:41:24.354Z,23.5
2022-09-05T10:42:27.702Z,23.6
2022-09-05T10:43:30.287Z,24.3
2022-09-05T10:44:33.732Z,24.5
2022-09-05T10:45:40.698Z,24.8
2022-09-05T10:46:53.948Z,25.4
2022-09-05T10:48:14.893Z,25
2022-09-05T10:49:18.198Z,25.2
2022-09-05T10:50:21.649Z,25.2
2022-09-05T10:51:29.841Z,25.2
2022-09-05T10:52:32.987Z,25.3
2022-09-05T10:53:41.661Z,25.6
2022-09-05T10:54:45.075Z,25.8
2022-09-05T10:55:53.315Z,26.1
2022-09-05T10:56:56.459Z,25.5
2022-09-05T10:57:59.333Z,25.6
2022-09-05T11:02:50.124Z,25.4
2022-09-05T11:04:02.393Z,26.5
2022-09-05T11:05:05.356Z,26
2022-09-05T11:06:10.562Z,26.4
2022-09-05T11:07:13.643Z,26.7
2022-09-05T11:08:16.375Z,26.3
2022-09-05T11:09:19.513Z,26.1
2022-09-05T11:10:22.401Z,26.1
2022-09-05T11:11:36.384Z,25.6
2022-09-05T11:12:39.836Z,25.4
2022-09-05T11:13:42.090Z,25.2
2022-09-05T11:14:45.516Z,25.1
2022-09-05T11:16:14.468Z,24.6
2022-09-05T11:17:17.833Z,24.8
2022-09-05T11:18:20.624Z,24.9
2022-09-05T11:20:00.025Z,24.7
2022-09-05T11:21:02.921Z,24.8
2022-09-05T11:22:25.651Z,25
2022-09-05T11:23:28.445Z,25
2022-09-05T11:24:33.973Z,25.5
2022-09-05T11:25:42.520Z,25.9
2022-09-05T11:27:26.641Z,26.8
2022-09-05T11:28:29.660Z,26.1
2022-09-05T11:29:36.056Z,26.3
2022-09-05T11:30:40.278Z,26.1
2022-09-05T11:41:09.935Z,25.5
2022-09-05T11:42:19.522Z,27.9
2022-09-05T11:43:22.957Z,28
2022-09-05T11:44:28.533Z,27.7
2022-09-05T11:45:31.637Z,28
2022-09-05T11:46:35.147Z,28
2022-09-05T11:47:45.831Z,28.4
2022-09-05T11:48:55.358Z,28.3
2022-09-05T11:49:59.105Z,29
2022-09-05T11:51:01.825Z,28.9
2022-09-05T11:52:04.967Z,29.4
2022-09-05T11:53:07.907Z,28.4
2022-09-05T11:54:11.327Z,28.6
2022-09-05T11:55:22.956Z,28.4
2022-09-05T11:56:30.340Z,28.1
2022-09-05T11:57:36.676Z,28.1
2022-09-05T11:58:48.131Z,27.3
2022-09-05T12:00:35.427Z,27.4
2022-09-05T12:01:47.740Z,27.5
2022-09-05T12:02:53.277Z,27.1
2022-09-05T12:42:34.399Z,27.3
2022-09-05T12:46:54.467Z,29.1
2022-09-05T12:47:59.963Z,28.3
2022-09-05T12:49:09.165Z,27.6
2022-09-05T12:50:17.488Z,27.7
2022-09-05T12:51:49.039Z,27.5
2022-09-05T12:52:52.117Z,27.2
2022-09-05T12:53:55.575Z,27.4
2022-09-05T12:54:58.680Z,27
2022-09-05T13:03:48.451Z,26.9
2022-09-05T13:05:29.839Z,26.7
2022-09-05T13:06:33.519Z,26.3
2022-09-05T13:07:39.277Z,26.7
2022-09-05T13:08:41.872Z,27
2022-09-05T13:15:31.804Z,26.4
2022-09-05T13:16:37.082Z,25.8
2022-09-05T13:17:46.084Z,25.9
2022-09-05T13:18:49.241Z,25.8
2022-09-05T13:19:53.369Z,25.9
2022-09-05T13:20:56.596Z,25.7
2022-09-05T13:21:59.680Z,25.5
2022-09-05T13:23:03.110Z,25.5
2022-09-05T13:24:05.901Z,25.3
2022-09-05T13:25:08.510Z,25.5
2022-09-05T13:26:11.600Z,25.6
2022-09-05T13:27:15.143Z,25.4
2022-09-05T13:28:17.584Z,25.3
2022-09-05T13:29:20.394Z,25.6
2022-09-05T13:38:52.397Z,25.6
2022-09-05T13:40:00.560Z,26
2022-09-05T13:41:03.742Z,26.2
2022-09-05T13:42:06.410Z,26.4
2022-09-05T13:43:09.846Z,26.1
2022-09-05T13:44:29.773Z,26.5
2022-09-05T13:45:33.722Z,26.6
2022-09-05T13:46:42.217Z,26.4
2022-09-05T13:47:45.586Z,26.5
2022-09-05T13:49:33.329Z,26.5
2022-09-05T13:50:36.388Z,26.8
2022-09-05T13:51:39.535Z,26.9
2022-09-05T13:52:42.674Z,27.1
2022-09-05T13:53:45.533Z,27
2022-09-05T13:54:53.120Z,27
2022-09-05T13:56:04.687Z,26.7
2022-09-05T13:57:07.762Z,26.5
2022-09-05T13:58:10.079Z,26.9
2022-09-05T13:59:12.674Z,27.1
2022-09-05T14:00:30.089Z,27.1
2022-09-05T14:01:32.765Z,27
2022-09-05T14:03:41.109Z,26.8
2022-09-05T14:05:22.284Z,26.7
2022-09-05T14:06:50.310Z,27
2022-09-05T14:07:53.645Z,27
2022-09-05T14:09:42.743Z,26.7
2022-09-05T14:10:45.264Z,26.6
2022-09-05T14:11:48.334Z,27
2022-09-05T14:13:03.117Z,26.9
2022-09-05T14:14:12.812Z,26.8
2022-09-05T14:15:16.089Z,26.9
2022-09-05T14:16:18.652Z,27.3
2022-09-05T14:17:54.112Z,27.3
2022-09-05T14:18:57.651Z,27.5
2022-09-05T14:20:00.428Z,27.5
2022-09-05T14:21:13.026Z,27.5
2022-09-05T14:22:24.347Z,27.2
2022-09-05T14:23:27.728Z,26.6
2022-09-05T14:24:30.372Z,26.8
2022-09-05T14:25:33.245Z,27.1
2022-09-05T14:26:36.711Z,27.3
2022-09-05T14:27:39.861Z,27.2
2022-09-05T14:28:48.185Z,27.7
2022-09-05T14:29:53.215Z,27.7
2022-09-05T14:38:27.228Z,27.7
2022-09-05T14:39:32.658Z,27.3
2022-09-05T14:40:35.526Z,27.4
2022-09-05T14:42:07.820Z,27.7
2022-09-05T14:43:13.224Z,27.9
2022-09-05T14:44:17.283Z,27.7
2022-09-05T14:45:20.242Z,27.7
2022-09-05T14:46:23.948Z,27.7
2022-09-05T14:47:37.467Z,27.9
2022-09-05T14:48:41.240Z,27.7
2022-09-05T14:49:56.646Z,27.6
2022-09-05T14:51:01.622Z,27.8
2022-09-05T14:52:04.208Z,27.6
2022-09-05T14:54:06.579Z,28
2022-09-05T14:55:24.406Z,27.9
2022-09-05T15:03:08.104Z,28.1
2022-09-05T15:04:45.567Z,26.7
2022-09-05T15:05:48.572Z,26.3
2022-09-05T15:06:50.983Z,26.5
2022-09-05T15:08:00.656Z,26.4
2022-09-05T15:12:57.840Z,26.1
2022-09-05T15:14:05.150Z,25.9
2022-09-05T15:15:07.650Z,25.7
2022-09-05T15:16:10.942Z,25.7
2022-09-05T15:17:19.857Z,25.4
2022-09-05T15:18:23.137Z,25.4
2022-09-05T15:19:26.878Z,25.6
2022-09-05T15:20:29.814Z,25.7
2022-09-05T15:21:36.747Z,25.5
2022-09-05T15:22:40.341Z,25.8
2022-09-05T15:23:53.193Z,26
2022-09-05T15:25:18.073Z,25.7
2022-09-05T15:26:28.036Z,25.5
2022-09-05T15:27:30.891Z,25.3
2022-09-05T15:28:34.035Z,25.3
2022-09-05T15:29:36.355Z,25
2022-09-05T15:30:39.112Z,25
2022-09-05T15:31:42.228Z,25
2022-09-05T15:32:51.993Z,24.9
2022-09-05T15:33:55.062Z,24.8
2022-09-05T15:34:58.789Z,24.9
2022-09-05T15:36:01.653Z,24.8
2022-09-05T15:37:23.987Z,24.9
2022-09-05T15:38:28.015Z,24.9
2022-09-05T15:39:31.252Z,24.5
2022-09-05T15:40:34.758Z,24.3
2022-09-05T15:41:45.260Z,24.3
2022-09-05T15:42:48.688Z,24.4
2022-09-05T15:43:51.861Z,24.2
2022-09-05T15:45:12.161Z,24.2
2022-09-05T15:46:15.699Z,24.1
2022-09-05T15:47:17.860Z,24.3
2022-09-05T15:48:22.013Z,24.3
2022-09-05T15:49:25.148Z,24.4
2022-09-05T15:50:28.312Z,24.3
2022-09-05T15:51:30.919Z,24.2
2022-09-05T15:52:36.317Z,24.2
2022-09-05T15:53:39.663Z,24.1
2022-09-05T15:54:49.590Z,24
2022-09-05T15:56:02.026Z,24
2022-09-05T15:57:08.113Z,23.9
2022-09-05T15:58:10.624Z,24
2022-09-05T15:59:13.689Z,24
2022-09-05T16:00:17.481Z,23.9
2022-09-05T16:02:02.673Z,23.9
2022-09-05T16:12:16.093Z,23.6
2022-09-05T16:13:55.903Z,24.3
2022-09-05T16:23:44.431Z,23.9
2022-09-05T16:25:02.229Z,23.6
2022-09-05T16:26:05.150Z,23.5
2022-09-05T16:27:08.148Z,23.3
2022-09-05T16:28:10.748Z,23.4
2022-09-05T16:29:13.183Z,23.4
2022-09-05T16:30:17.768Z,23.3
2022-09-05T16:31:21.229Z,23.4
2022-09-05T16:32:24.076Z,23.3
2022-09-05T16:33:27.665Z,23.4
2022-09-05T16:34:31.144Z,23.2
2022-09-05T16:35:34.221Z,23.3
2022-09-05T16:37:09.347Z,23.1
2022-09-05T16:38:12.993Z,23.2
2022-09-05T16:39:15.699Z,23.1
2022-09-05T16:40:18.773Z,23.1
2022-09-05T16:41:25.927Z,23.2
2022-09-05T16:42:49.206Z,23.2
2022-09-05T16:43:51.645Z,23.2
2022-09-05T16:44:54.349Z,23
2022-09-05T16:45:57.298Z,23
2022-09-05T16:47:00.786Z,23
2022-09-05T16:48:03.663Z,23
2022-09-05T16:49:14.017Z,23
2022-09-05T16:50:35.391Z,22.8
2022-09-05T16:51:38.405Z,22.8
2022-09-05T16:52:57.306Z,22.8
2022-09-05T16:54:01.247Z,22.8
2022-09-05T16:55:03.791Z,22.7
2022-09-05T16:56:06.208Z,22.8
2022-09-05T16:57:09.360Z,22.7
2022-09-05T16:58:16.322Z,22.6
2022-09-05T16:59:20.032Z,22.7
2022-09-05T17:00:22.613Z,22.6
2022-09-05T17:01:26.285Z,22.6
2022-09-05T17:02:30.112Z,22.5
2022-09-05T17:03:32.811Z,22.6
2022-09-05T17:04:36.065Z,22.6
2022-09-05T17:05:39.235Z,22.5
2022-09-05T17:06:46.773Z,22.4
2022-09-05T17:07:50.192Z,22.5
2022-09-05T17:09:14.817Z,22.4
2022-09-05T17:10:18.665Z,22.4
2022-09-05T17:11:41.910Z,22.4
2022-09-05T17:13:05.132Z,22.3
2022-09-05T17:14:07.995Z,22.3
2022-09-05T17:15:11.253Z,22.3
2022-09-05T17:16:14.639Z,22.2
2022-09-05T17:18:32.527Z,22.3
2022-09-05T17:20:09.032Z,22.3
2022-09-05T17:21:12.103Z,22.3
2022-09-05T17:31:59.581Z,22.2
2022-09-05T17:33:06.959Z,21.9
2022-09-05T17:34:10.307Z,22
2022-09-05T17:35:19.825Z,21.9
2022-09-05T17:36:22.264Z,21.9
2022-09-05T17:37:45.180Z,21.9
2022-09-05T17:38:49.967Z,21.9
2022-09-05T17:39:53.482Z,21.9
2022-09-05T17:40:56.203Z,21.8
2022-09-05T17:41:59.279Z,21.7
2022-09-05T17:43:02.351Z,21.7
2022-09-05T17:44:05.297Z,21.7
2022-09-05T17:45:08.168Z,21.7
2022-09-05T17:46:11.562Z,21.6
2022-09-05T17:47:17.027Z,21.7
2022-09-05T17:48:20.180Z,21.7
2022-09-05T17:49:23.078Z,21.7
2022-09-05T17:50:35.104Z,21.6
2022-09-05T17:51:37.888Z,21.5
2022-09-05T17:52:40.321Z,21.6
2022-09-05T17:53:43.419Z,21.6
2022-09-05T17:54:51.901Z,21.6
2022-09-05T17:55:55.774Z,21.6
2022-09-05T17:56:59.003Z,21.5
2022-09-05T17:58:01.847Z,21.5
2022-09-05T17:59:04.731Z,21.5
2022-09-05T18:00:14.076Z,21.4
2022-09-05T18:01:17.664Z,21.4
2022-09-05T18:02:21.434Z,21.4
2022-09-05T18:03:24.433Z,21.4
2022-09-05T18:04:27.584Z,21.4
2022-09-05T18:05:30.653Z,21.4
2022-09-05T18:06:33.443Z,21.4
2022-09-05T18:07:42.326Z,21.4
2022-09-05T18:08:46.692Z,21.4
2022-09-05T18:31:52.270Z,20.8
2022-09-05T18:33:59.002Z,20.7
2022-09-05T18:35:02.503Z,20.6
2022-09-05T18:36:07.948Z,20.6
2022-09-05T18:37:11.840Z,20.6
2022-09-05T18:38:53.798Z,20.5
2022-09-05T18:39:57.509Z,20.5
2022-09-05T18:41:00.503Z,20.5
2022-09-05T18:42:36.250Z,20.4
2022-09-05T18:44:20.047Z,20.3
2022-09-05T18:45:35.573Z,20.3
2022-09-05T18:46:43.269Z,20.3
2022-09-05T18:48:02.282Z,20.1
2022-09-05T18:50:33.385Z,20.1
2022-09-05T18:51:37.789Z,19.9
2022-09-05T18:52:41.392Z,20
2022-09-05T18:53:48.897Z,19.8
2022-09-05T18:56:22.298Z,19.9
2022-09-05T18:57:40.145Z,19.8
2022-09-05T18:58:59.493Z,19.9
2022-09-05T19:00:14.312Z,19.9
2022-09-05T19:01:18.020Z,19.8
2022-09-05T19:03:00.860Z,19.8
2022-09-05T19:04:09.171Z,19.8
2022-09-05T19:05:48.662Z,19.7
2022-09-05T19:06:51.458Z,19.8
2022-09-05T19:08:01.283Z,19.6
2022-09-05T19:09:04.728Z,19.5
2022-09-05T19:10:38.173Z,19.5
2022-09-05T19:11:55.193Z,19.6
2022-09-05T19:13:01.163Z,19.5
2022-09-05T19:14:31.171Z,19.5
2022-09-05T19:15:36.759Z,19.5
2022-09-05T19:16:50.467Z,19.4
2022-09-05T19:18:29.437Z,19.3
2022-09-05T19:19:40.733Z,19.3
2022-09-05T19:20:44.298Z,19.3
2022-09-05T19:23:13.860Z,19.2
2022-09-05T19:24:17.187Z,19.2
2022-09-05T19:25:32.258Z,19.2
2022-09-05T19:26:34.790Z,19.2
2022-09-05T19:37:51.156Z,19.2
2022-09-05T19:48:11.060Z,19.1
2022-09-05T19:49:16.759Z,18.8
2022-09-05T19:50:19.840Z,18.9
2022-09-05T19:51:27.770Z,19
2022-09-05T19:52:41.341Z,18.9
2022-09-05T19:53:44.692Z,18.9
2022-09-05T19:54:47.399Z,18.8